sensor_id;sensor_type;location;lat;lon;timestamp;P1;durP1;ratioP1;P2;durP2;ratioP2
15502;SDS011;7853;52.186;5.948;2023-07-20T00:04:34;4.61;;;2.92;;
15502;SDS011;7853;52.186;5.948;2023-07-20T00:04:34;4.13;;;2.89;;
15502;SDS011;7853;52.186;5.948;2023-07-20T00:04:34;3.80;;;3.03;;
15502;SDS011;7853;52.186;5.948;2023-07-20T00:05:26;4.07;;;2.62;;
15502;SDS011;7853;52.186;5.948;2023-07-20T00:06:30;6.63;;;3.21;;
15502;SDS011;7853;52.186;5.948;2023-07-20T00:07:32;4.54;;;2.76;;
15502;SDS011;7853;52.186;5.948;2023-07-20T00:08:33;3.82;;;3.08;;
15502;SDS011;7853;52.186;5.948;2023-07-20T00:09:33;3.58;;;2.75;;
15502;SDS011;7853;52.186;5.948;2023-07-20T00:10:34;4.03;;;2.94;;
15502;SDS011;7853;52.186;5.948;2023-07-20T00:11:35;4.21;;;2.76;;
15502;SDS011;7853;52.186;5.948;2023-07-20T00:12:34;4.29;;;2.65;;
15502;SDS011;7853;52.186;5.948;2023-07-20T00:13:34;4.01;;;2.76;;
15502;SDS011;7853;52.186;5.948;2023-07-20T00:14:34;3.42;;;2.86;;
15502;SDS011;7853;52.186;5.948;2023-07-20T00:15:34;3.74;;;2.71;;
15502;SDS011;7853;52.186;5.948;2023-07-20T00:16:34;3.40;;;2.61;;
15502;SDS011;7853;52.186;5.948;2023-07-20T00:17:35;3.58;;;2.56;;
15502;SDS011;7853;52.186;5.948;2023-07-20T00:18:34;3.70;;;2.68;;
15502;SDS011;7853;52.186;5.948;2023-07-20T00:19:34;3.52;;;2.43;;
15502;SDS011;7853;52.186;5.948;2023-07-20T00:20:34;2.98;;;2.34;;
15502;SDS011;7853;52.186;5.948;2023-07-20T00:21:34;3.20;;;2.44;;
15502;SDS011;7853;52.186;5.948;2023-07-20T00:22:34;3.05;;;2.41;;
15502;SDS011;7853;52.186;5.948;2023-07-20T00:23:34;3.08;;;2.41;;
15502;SDS011;7853;52.186;5.948;2023-07-20T00:24:34;2.88;;;2.36;;
15502;SDS011;7853;52.186;5.948;2023-07-20T00:25:34;3.68;;;2.46;;
15502;SDS011;7853;52.186;5.948;2023-07-20T00:26:34;3.33;;;2.38;;
15502;SDS011;7853;52.186;5.948;2023-07-20T00:27:34;3.17;;;2.61;;
15502;SDS011;7853;52.186;5.948;2023-07-20T00:28:34;3.73;;;2.57;;
15502;SDS011;7853;52.186;5.948;2023-07-20T00:29:34;3.69;;;2.51;;
15502;SDS011;7853;52.186;5.948;2023-07-20T00:30:34;2.88;;;2.21;;
15502;SDS011;7853;52.186;5.948;2023-07-20T00:31:35;2.47;;;1.95;;
15502;SDS011;7853;52.186;5.948;2023-07-20T00:32:34;2.78;;;2.09;;
15502;SDS011;7853;52.186;5.948;2023-07-20T00:33:34;2.35;;;2.05;;
15502;SDS011;7853;52.186;5.948;2023-07-20T00:34:34;3.05;;;2.01;;
15502;SDS011;7853;52.186;5.948;2023-07-20T00:35:34;2.50;;;2.21;;
15502;SDS011;7853;52.186;5.948;2023-07-20T00:36:34;3.00;;;2.19;;
15502;SDS011;7853;52.186;5.948;2023-07-20T00:37:34;2.97;;;2.13;;
15502;SDS011;7853;52.186;5.948;2023-07-20T00:38:35;3.26;;;2.22;;
15502;SDS011;7853;52.186;5.948;2023-07-20T00:39:34;2.84;;;2.20;;
15502;SDS011;7853;52.186;5.948;2023-07-20T00:40:35;3.04;;;2.08;;
15502;SDS011;7853;52.186;5.948;2023-07-20T00:41:34;2.94;;;2.14;;
15502;SDS011;7853;52.186;5.948;2023-07-20T00:42:35;2.47;;;2.10;;
15502;SDS011;7853;52.186;5.948;2023-07-20T00:43:35;2.58;;;2.04;;
15502;SDS011;7853;52.186;5.948;2023-07-20T00:44:35;3.36;;;1.90;;
15502;SDS011;7853;52.186;5.948;2023-07-20T00:45:35;3.14;;;1.79;;
15502;SDS011;7853;52.186;5.948;2023-07-20T00:46:35;2.40;;;1.91;;
15502;SDS011;7853;52.186;5.948;2023-07-20T00:47:35;2.82;;;1.85;;
15502;SDS011;7853;52.186;5.948;2023-07-20T00:48:35;2.46;;;1.87;;
15502;SDS011;7853;52.186;5.948;2023-07-20T00:49:35;2.04;;;1.84;;
15502;SDS011;7853;52.186;5.948;2023-07-20T00:50:35;2.42;;;1.86;;
15502;SDS011;7853;52.186;5.948;2023-07-20T00:51:35;3.07;;;1.95;;
15502;SDS011;7853;52.186;5.948;2023-07-20T00:52:35;2.52;;;1.80;;
15502;SDS011;7853;52.186;5.948;2023-07-20T00:53:35;2.13;;;1.68;;
15502;SDS011;7853;52.186;5.948;2023-07-20T00:54:35;2.31;;;1.84;;
15502;SDS011;7853;52.186;5.948;2023-07-20T00:55:35;2.09;;;1.88;;
15502;SDS011;7853;52.186;5.948;2023-07-20T00:56:35;1.91;;;1.69;;
15502;SDS011;7853;52.186;5.948;2023-07-20T00:57:35;2.19;;;1.67;;
15502;SDS011;7853;52.186;5.948;2023-07-20T00:58:35;2.15;;;1.65;;
15502;SDS011;7853;52.186;5.948;2023-07-20T00:59:35;2.41;;;1.85;;
15502;SDS011;7853;52.186;5.948;2023-07-20T01:00:35;3.31;;;1.79;;
15502;SDS011;7853;52.186;5.948;2023-07-20T01:01:35;2.03;;;1.74;;
15502;SDS011;7853;52.186;5.948;2023-07-20T01:02:35;1.94;;;1.73;;
15502;SDS011;7853;52.186;5.948;2023-07-20T01:03:35;1.98;;;1.61;;
15502;SDS011;7853;52.186;5.948;2023-07-20T01:04:35;2.14;;;1.57;;
15502;SDS011;7853;52.186;5.948;2023-07-20T01:05:37;2.39;;;1.60;;
15502;SDS011;7853;52.186;5.948;2023-07-20T01:06:36;2.46;;;1.67;;
15502;SDS011;7853;52.186;5.948;2023-07-20T01:07:36;2.21;;;1.60;;
15502;SDS011;7853;52.186;5.948;2023-07-20T01:08:36;1.98;;;1.54;;
15502;SDS011;7853;52.186;5.948;2023-07-20T01:09:36;1.80;;;1.46;;
15502;SDS011;7853;52.186;5.948;2023-07-20T01:10:36;1.84;;;1.41;;
15502;SDS011;7853;52.186;5.948;2023-07-20T01:11:36;1.97;;;1.40;;
15502;SDS011;7853;52.186;5.948;2023-07-20T01:12:35;1.89;;;1.42;;
15502;SDS011;7853;52.186;5.948;2023-07-20T01:13:35;1.96;;;1.39;;
15502;SDS011;7853;52.186;5.948;2023-07-20T01:14:35;2.04;;;1.42;;
15502;SDS011;7853;52.186;5.948;2023-07-20T01:15:35;2.14;;;1.44;;
15502;SDS011;7853;52.186;5.948;2023-07-20T01:16:35;2.27;;;1.43;;
15502;SDS011;7853;52.186;5.948;2023-07-20T01:17:35;2.47;;;1.62;;
15502;SDS011;7853;52.186;5.948;2023-07-20T01:18:35;2.68;;;1.74;;
15502;SDS011;7853;52.186;5.948;2023-07-20T01:19:35;2.79;;;1.64;;
15502;SDS011;7853;52.186;5.948;2023-07-20T01:20:35;2.19;;;1.64;;
15502;SDS011;7853;52.186;5.948;2023-07-20T01:21:37;2.14;;;1.60;;
15502;SDS011;7853;52.186;5.948;2023-07-20T01:22:40;2.24;;;1.64;;
15502;SDS011;7853;52.186;5.948;2023-07-20T01:23:40;2.05;;;1.54;;
15502;SDS011;7853;52.186;5.948;2023-07-20T01:24:52;2.75;;;1.57;;
15502;SDS011;7853;52.186;5.948;2023-07-20T01:25:45;2.02;;;1.84;;
15502;SDS011;7853;52.186;5.948;2023-07-20T01:26:59;1.82;;;1.50;;
15502;SDS011;7853;52.186;5.948;2023-07-20T01:27:49;2.11;;;1.51;;
15502;SDS011;7853;52.186;5.948;2023-07-20T01:28:44;2.10;;;1.43;;
15502;SDS011;7853;52.186;5.948;2023-07-20T01:29:41;2.27;;;1.65;;
15502;SDS011;7853;52.186;5.948;2023-07-20T01:30:42;2.30;;;1.58;;
15502;SDS011;7853;52.186;5.948;2023-07-20T01:31:34;1.78;;;1.60;;
15502;SDS011;7853;52.186;5.948;2023-07-20T01:32:33;2.40;;;1.65;;
15502;SDS011;7853;52.186;5.948;2023-07-20T01:33:33;1.65;;;1.43;;
15502;SDS011;7853;52.186;5.948;2023-07-20T01:34:33;1.69;;;1.49;;
15502;SDS011;7853;52.186;5.948;2023-07-20T01:35:33;2.31;;;1.61;;
15502;SDS011;7853;52.186;5.948;2023-07-20T01:36:34;1.73;;;1.34;;
15502;SDS011;7853;52.186;5.948;2023-07-20T01:37:33;1.83;;;1.41;;
15502;SDS011;7853;52.186;5.948;2023-07-20T01:38:33;1.91;;;1.47;;
15502;SDS011;7853;52.186;5.948;2023-07-20T01:39:33;1.70;;;1.50;;
15502;SDS011;7853;52.186;5.948;2023-07-20T01:40:33;1.83;;;1.42;;
15502;SDS011;7853;52.186;5.948;2023-07-20T01:41:33;1.62;;;1.31;;
15502;SDS011;7853;52.186;5.948;2023-07-20T01:42:33;1.84;;;1.32;;
15502;SDS011;7853;52.186;5.948;2023-07-20T01:43:33;1.75;;;1.36;;
15502;SDS011;7853;52.186;5.948;2023-07-20T01:44:33;1.42;;;1.20;;
15502;SDS011;7853;52.186;5.948;2023-07-20T01:45:34;1.90;;;1.32;;
15502;SDS011;7853;52.186;5.948;2023-07-20T01:46:34;1.84;;;1.33;;
15502;SDS011;7853;52.186;5.948;2023-07-20T01:47:34;1.29;;;1.19;;
15502;SDS011;7853;52.186;5.948;2023-07-20T01:48:34;1.63;;;1.24;;
15502;SDS011;7853;52.186;5.948;2023-07-20T01:49:34;1.92;;;1.34;;
15502;SDS011;7853;52.186;5.948;2023-07-20T01:50:34;1.56;;;1.31;;
15502;SDS011;7853;52.186;5.948;2023-07-20T01:51:34;1.27;;;1.17;;
15502;SDS011;7853;52.186;5.948;2023-07-20T01:52:34;1.33;;;1.23;;
15502;SDS011;7853;52.186;5.948;2023-07-20T01:53:34;1.63;;;1.26;;
15502;SDS011;7853;52.186;5.948;2023-07-20T01:54:34;1.80;;;1.28;;
15502;SDS011;7853;52.186;5.948;2023-07-20T01:55:34;1.33;;;1.23;;
15502;SDS011;7853;52.186;5.948;2023-07-20T01:56:34;1.25;;;1.14;;
15502;SDS011;7853;52.186;5.948;2023-07-20T01:57:34;1.36;;;1.17;;
15502;SDS011;7853;52.186;5.948;2023-07-20T01:58:34;1.56;;;1.16;;
15502;SDS011;7853;52.186;5.948;2023-07-20T01:59:34;1.37;;;1.25;;
15502;SDS011;7853;52.186;5.948;2023-07-20T02:00:36;1.57;;;1.27;;
15502;SDS011;7853;52.186;5.948;2023-07-20T02:01:34;1.52;;;1.18;;
15502;SDS011;7853;52.186;5.948;2023-07-20T02:02:34;1.80;;;1.28;;
15502;SDS011;7853;52.186;5.948;2023-07-20T02:03:34;1.59;;;1.27;;
15502;SDS011;7853;52.186;5.948;2023-07-20T02:04:34;2.16;;;1.22;;
15502;SDS011;7853;52.186;5.948;2023-07-20T02:05:34;1.87;;;1.30;;
15502;SDS011;7853;52.186;5.948;2023-07-20T02:06:34;1.46;;;1.30;;
15502;SDS011;7853;52.186;5.948;2023-07-20T02:07:34;1.80;;;1.33;;
15502;SDS011;7853;52.186;5.948;2023-07-20T02:08:34;1.89;;;1.32;;
15502;SDS011;7853;52.186;5.948;2023-07-20T02:09:34;1.68;;;1.24;;
15502;SDS011;7853;52.186;5.948;2023-07-20T02:10:34;1.81;;;1.31;;
15502;SDS011;7853;52.186;5.948;2023-07-20T02:11:34;1.36;;;1.20;;
15502;SDS011;7853;52.186;5.948;2023-07-20T02:12:34;1.69;;;1.35;;
15502;SDS011;7853;52.186;5.948;2023-07-20T02:13:34;1.46;;;1.33;;
15502;SDS011;7853;52.186;5.948;2023-07-20T02:14:34;1.66;;;1.27;;
15502;SDS011;7853;52.186;5.948;2023-07-20T02:15:34;1.46;;;1.25;;
15502;SDS011;7853;52.186;5.948;2023-07-20T02:16:34;1.52;;;1.32;;
15502;SDS011;7853;52.186;5.948;2023-07-20T02:17:34;1.45;;;1.35;;
15502;SDS011;7853;52.186;5.948;2023-07-20T02:18:34;2.36;;;1.44;;
15502;SDS011;7853;52.186;5.948;2023-07-20T02:19:34;1.53;;;1.26;;
15502;SDS011;7853;52.186;5.948;2023-07-20T02:20:34;1.60;;;1.34;;
15502;SDS011;7853;52.186;5.948;2023-07-20T02:21:34;1.73;;;1.41;;
15502;SDS011;7853;52.186;5.948;2023-07-20T02:22:34;1.54;;;1.36;;
15502;SDS011;7853;52.186;5.948;2023-07-20T02:23:34;1.47;;;1.36;;
15502;SDS011;7853;52.186;5.948;2023-07-20T02:24:35;1.60;;;1.32;;
15502;SDS011;7853;52.186;5.948;2023-07-20T02:25:34;1.64;;;1.25;;
15502;SDS011;7853;52.186;5.948;2023-07-20T02:26:34;2.03;;;1.15;;
15502;SDS011;7853;52.186;5.948;2023-07-20T02:27:35;1.42;;;1.28;;
15502;SDS011;7853;52.186;5.948;2023-07-20T02:28:35;1.79;;;1.48;;
15502;SDS011;7853;52.186;5.948;2023-07-20T02:29:35;1.50;;;1.34;;
15502;SDS011;7853;52.186;5.948;2023-07-20T02:30:37;1.71;;;1.32;;
15502;SDS011;7853;52.186;5.948;2023-07-20T02:31:35;1.41;;;1.15;;
15502;SDS011;7853;52.186;5.948;2023-07-20T02:32:35;1.59;;;1.34;;
15502;SDS011;7853;52.186;5.948;2023-07-20T02:33:35;1.59;;;1.20;;
15502;SDS011;7853;52.186;5.948;2023-07-20T02:34:35;1.33;;;1.22;;
15502;SDS011;7853;52.186;5.948;2023-07-20T02:35:35;1.42;;;1.28;;
15502;SDS011;7853;52.186;5.948;2023-07-20T02:36:35;1.33;;;1.18;;
15502;SDS011;7853;52.186;5.948;2023-07-20T02:37:35;1.60;;;1.12;;
15502;SDS011;7853;52.186;5.948;2023-07-20T02:38:35;1.37;;;1.24;;
15502;SDS011;7853;52.186;5.948;2023-07-20T02:39:35;1.64;;;1.31;;
15502;SDS011;7853;52.186;5.948;2023-07-20T02:40:35;1.45;;;1.09;;
15502;SDS011;7853;52.186;5.948;2023-07-20T02:41:35;1.41;;;1.21;;
15502;SDS011;7853;52.186;5.948;2023-07-20T02:42:35;1.44;;;1.23;;
15502;SDS011;7853;52.186;5.948;2023-07-20T02:43:35;1.23;;;1.12;;
15502;SDS011;7853;52.186;5.948;2023-07-20T02:44:35;1.34;;;1.19;;
15502;SDS011;7853;52.186;5.948;2023-07-20T02:45:35;1.35;;;1.16;;
15502;SDS011;7853;52.186;5.948;2023-07-20T02:46:35;1.49;;;1.10;;
15502;SDS011;7853;52.186;5.948;2023-07-20T02:47:35;1.35;;;1.16;;
15502;SDS011;7853;52.186;5.948;2023-07-20T02:48:35;1.65;;;1.30;;
15502;SDS011;7853;52.186;5.948;2023-07-20T02:49:35;1.44;;;1.19;;
15502;SDS011;7853;52.186;5.948;2023-07-20T02:50:35;1.77;;;1.17;;
15502;SDS011;7853;52.186;5.948;2023-07-20T02:51:35;1.56;;;1.22;;
15502;SDS011;7853;52.186;5.948;2023-07-20T02:52:35;1.53;;;1.41;;
15502;SDS011;7853;52.186;5.948;2023-07-20T02:53:35;1.57;;;1.21;;
15502;SDS011;7853;52.186;5.948;2023-07-20T02:54:35;1.29;;;1.18;;
15502;SDS011;7853;52.186;5.948;2023-07-20T02:55:35;1.34;;;1.22;;
15502;SDS011;7853;52.186;5.948;2023-07-20T02:56:35;1.51;;;1.19;;
15502;SDS011;7853;52.186;5.948;2023-07-20T02:57:35;1.61;;;1.28;;
15502;SDS011;7853;52.186;5.948;2023-07-20T02:58:35;1.53;;;1.24;;
15502;SDS011;7853;52.186;5.948;2023-07-20T02:59:35;1.95;;;1.28;;
15502;SDS011;7853;52.186;5.948;2023-07-20T03:00:35;1.78;;;1.31;;
15502;SDS011;7853;52.186;5.948;2023-07-20T03:01:35;2.30;;;1.36;;
15502;SDS011;7853;52.186;5.948;2023-07-20T03:02:35;1.96;;;1.26;;
15502;SDS011;7853;52.186;5.948;2023-07-20T03:03:35;1.64;;;1.23;;
15502;SDS011;7853;52.186;5.948;2023-07-20T03:04:35;1.41;;;1.26;;
15502;SDS011;7853;52.186;5.948;2023-07-20T03:05:35;1.32;;;1.13;;
15502;SDS011;7853;52.186;5.948;2023-07-20T03:06:35;1.29;;;1.19;;
15502;SDS011;7853;52.186;5.948;2023-07-20T03:07:35;1.42;;;1.28;;
15502;SDS011;7853;52.186;5.948;2023-07-20T03:08:35;2.22;;;1.26;;
15502;SDS011;7853;52.186;5.948;2023-07-20T03:09:35;1.68;;;1.14;;
15502;SDS011;7853;52.186;5.948;2023-07-20T03:10:38;1.55;;;1.24;;
15502;SDS011;7853;52.186;5.948;2023-07-20T03:11:35;1.37;;;1.23;;
15502;SDS011;7853;52.186;5.948;2023-07-20T03:12:35;1.36;;;1.16;;
15502;SDS011;7853;52.186;5.948;2023-07-20T03:13:35;1.94;;;1.15;;
15502;SDS011;7853;52.186;5.948;2023-07-20T03:14:35;1.92;;;1.26;;
15502;SDS011;7853;52.186;5.948;2023-07-20T03:15:35;1.43;;;1.17;;
15502;SDS011;7853;52.186;5.948;2023-07-20T03:16:35;1.43;;;1.32;;
15502;SDS011;7853;52.186;5.948;2023-07-20T03:17:35;2.31;;;1.16;;
15502;SDS011;7853;52.186;5.948;2023-07-20T03:18:35;2.82;;;1.35;;
15502;SDS011;7853;52.186;5.948;2023-07-20T03:19:35;1.55;;;1.32;;
15502;SDS011;7853;52.186;5.948;2023-07-20T03:20:35;1.71;;;1.17;;
15502;SDS011;7853;52.186;5.948;2023-07-20T03:21:35;1.56;;;1.15;;
15502;SDS011;7853;52.186;5.948;2023-07-20T03:22:35;1.58;;;1.28;;
15502;SDS011;7853;52.186;5.948;2023-07-20T03:23:35;1.93;;;1.40;;
15502;SDS011;7853;52.186;5.948;2023-07-20T03:24:35;1.37;;;1.27;;
15502;SDS011;7853;52.186;5.948;2023-07-20T03:25:35;1.64;;;1.25;;
15502;SDS011;7853;52.186;5.948;2023-07-20T03:26:35;1.47;;;1.34;;
15502;SDS011;7853;52.186;5.948;2023-07-20T03:27:35;1.67;;;1.38;;
15502;SDS011;7853;52.186;5.948;2023-07-20T03:28:35;1.44;;;1.34;;
15502;SDS011;7853;52.186;5.948;2023-07-20T03:29:35;1.75;;;1.25;;
15502;SDS011;7853;52.186;5.948;2023-07-20T03:30:35;1.34;;;1.23;;
15502;SDS011;7853;52.186;5.948;2023-07-20T03:31:35;1.31;;;1.21;;
15502;SDS011;7853;52.186;5.948;2023-07-20T03:32:35;1.39;;;1.24;;
15502;SDS011;7853;52.186;5.948;2023-07-20T03:33:35;2.00;;;1.27;;
15502;SDS011;7853;52.186;5.948;2023-07-20T03:34:35;1.62;;;1.28;;
15502;SDS011;7853;52.186;5.948;2023-07-20T03:35:35;1.60;;;1.21;;
15502;SDS011;7853;52.186;5.948;2023-07-20T03:36:35;1.49;;;1.36;;
15502;SDS011;7853;52.186;5.948;2023-07-20T03:37:35;1.48;;;1.24;;
15502;SDS011;7853;52.186;5.948;2023-07-20T03:38:35;1.84;;;1.31;;
15502;SDS011;7853;52.186;5.948;2023-07-20T03:39:35;1.62;;;1.28;;
15502;SDS011;7853;52.186;5.948;2023-07-20T03:40:35;1.43;;;1.24;;
15502;SDS011;7853;52.186;5.948;2023-07-20T03:41:35;1.38;;;1.26;;
15502;SDS011;7853;52.186;5.948;2023-07-20T03:42:35;1.48;;;1.25;;
15502;SDS011;7853;52.186;5.948;2023-07-20T03:43:35;1.64;;;1.34;;
15502;SDS011;7853;52.186;5.948;2023-07-20T03:44:35;2.02;;;1.36;;
15502;SDS011;7853;52.186;5.948;2023-07-20T03:45:35;1.49;;;1.22;;
15502;SDS011;7853;52.186;5.948;2023-07-20T03:46:35;1.46;;;1.36;;
15502;SDS011;7853;52.186;5.948;2023-07-20T03:47:35;1.34;;;1.24;;
15502;SDS011;7853;52.186;5.948;2023-07-20T03:48:35;1.56;;;1.33;;
15502;SDS011;7853;52.186;5.948;2023-07-20T03:49:35;2.17;;;1.38;;
15502;SDS011;7853;52.186;5.948;2023-07-20T03:50:35;1.53;;;1.35;;
15502;SDS011;7853;52.186;5.948;2023-07-20T03:51:35;1.60;;;1.31;;
15502;SDS011;7853;52.186;5.948;2023-07-20T03:52:35;2.34;;;1.40;;
15502;SDS011;7853;52.186;5.948;2023-07-20T03:53:35;1.44;;;1.34;;
15502;SDS011;7853;52.186;5.948;2023-07-20T03:54:35;1.42;;;1.29;;
15502;SDS011;7853;52.186;5.948;2023-07-20T03:55:35;1.54;;;1.39;;
15502;SDS011;7853;52.186;5.948;2023-07-20T03:56:35;1.47;;;1.37;;
15502;SDS011;7853;52.186;5.948;2023-07-20T03:57:35;1.45;;;1.35;;
15502;SDS011;7853;52.186;5.948;2023-07-20T03:58:35;1.76;;;1.40;;
15502;SDS011;7853;52.186;5.948;2023-07-20T03:59:36;1.63;;;1.32;;
15502;SDS011;7853;52.186;5.948;2023-07-20T04:00:35;1.59;;;1.41;;
15502;SDS011;7853;52.186;5.948;2023-07-20T04:01:35;1.76;;;1.43;;
15502;SDS011;7853;52.186;5.948;2023-07-20T04:02:35;1.62;;;1.41;;
15502;SDS011;7853;52.186;5.948;2023-07-20T04:03:35;1.44;;;1.34;;
15502;SDS011;7853;52.186;5.948;2023-07-20T04:04:35;1.58;;;1.33;;
15502;SDS011;7853;52.186;5.948;2023-07-20T04:05:35;1.51;;;1.39;;
15502;SDS011;7853;52.186;5.948;2023-07-20T04:06:35;1.76;;;1.46;;
15502;SDS011;7853;52.186;5.948;2023-07-20T04:07:35;1.47;;;1.31;;
15502;SDS011;7853;52.186;5.948;2023-07-20T04:08:35;1.45;;;1.35;;
15502;SDS011;7853;52.186;5.948;2023-07-20T04:09:35;1.50;;;1.40;;
15502;SDS011;7853;52.186;5.948;2023-07-20T04:10:35;1.50;;;1.40;;
15502;SDS011;7853;52.186;5.948;2023-07-20T04:11:35;1.54;;;1.34;;
15502;SDS011;7853;52.186;5.948;2023-07-20T04:12:35;1.80;;;1.43;;
15502;SDS011;7853;52.186;5.948;2023-07-20T04:13:35;1.90;;;1.58;;
15502;SDS011;7853;52.186;5.948;2023-07-20T04:14:35;1.48;;;1.37;;
15502;SDS011;7853;52.186;5.948;2023-07-20T04:15:35;1.83;;;1.45;;
15502;SDS011;7853;52.186;5.948;2023-07-20T04:16:35;1.72;;;1.38;;
15502;SDS011;7853;52.186;5.948;2023-07-20T04:17:35;1.65;;;1.33;;
15502;SDS011;7853;52.186;5.948;2023-07-20T04:18:35;2.82;;;1.46;;
15502;SDS011;7853;52.186;5.948;2023-07-20T04:19:35;1.58;;;1.41;;
15502;SDS011;7853;52.186;5.948;2023-07-20T04:20:35;2.04;;;1.48;;
15502;SDS011;7853;52.186;5.948;2023-07-20T04:21:39;1.54;;;1.34;;
15502;SDS011;7853;52.186;5.948;2023-07-20T04:22:35;1.52;;;1.39;;
15502;SDS011;7853;52.186;5.948;2023-07-20T04:23:35;1.78;;;1.49;;
15502;SDS011;7853;52.186;5.948;2023-07-20T04:24:35;1.68;;;1.43;;
15502;SDS011;7853;52.186;5.948;2023-07-20T04:25:35;2.68;;;1.43;;
15502;SDS011;7853;52.186;5.948;2023-07-20T04:26:35;3.06;;;1.43;;
15502;SDS011;7853;52.186;5.948;2023-07-20T04:27:35;1.91;;;1.42;;
15502;SDS011;7853;52.186;5.948;2023-07-20T04:28:35;1.57;;;1.39;;
15502;SDS011;7853;52.186;5.948;2023-07-20T04:29:35;1.75;;;1.39;;
15502;SDS011;7853;52.186;5.948;2023-07-20T04:30:35;1.66;;;1.39;;
15502;SDS011;7853;52.186;5.948;2023-07-20T04:31:35;1.69;;;1.41;;
15502;SDS011;7853;52.186;5.948;2023-07-20T04:32:35;1.71;;;1.39;;
15502;SDS011;7853;52.186;5.948;2023-07-20T04:33:35;1.67;;;1.54;;
15502;SDS011;7853;52.186;5.948;2023-07-20T04:34:35;1.51;;;1.41;;
15502;SDS011;7853;52.186;5.948;2023-07-20T04:35:50;1.93;;;1.44;;
15502;SDS011;7853;52.186;5.948;2023-07-20T04:36:48;2.09;;;1.57;;
15502;SDS011;7853;52.186;5.948;2023-07-20T04:37:41;2.10;;;1.35;;
15502;SDS011;7853;52.186;5.948;2023-07-20T04:38:37;1.46;;;1.34;;
15502;SDS011;7853;52.186;5.948;2023-07-20T04:39:36;1.54;;;1.39;;
15502;SDS011;7853;52.186;5.948;2023-07-20T04:40:35;1.94;;;1.41;;
15502;SDS011;7853;52.186;5.948;2023-07-20T04:41:34;1.56;;;1.36;;
15502;SDS011;7853;52.186;5.948;2023-07-20T04:42:34;1.52;;;1.36;;
15502;SDS011;7853;52.186;5.948;2023-07-20T04:43:34;1.53;;;1.43;;
15502;SDS011;7853;52.186;5.948;2023-07-20T04:44:34;1.76;;;1.49;;
15502;SDS011;7853;52.186;5.948;2023-07-20T04:45:34;2.12;;;1.40;;
15502;SDS011;7853;52.186;5.948;2023-07-20T04:46:34;1.83;;;1.47;;
15502;SDS011;7853;52.186;5.948;2023-07-20T04:47:34;1.67;;;1.39;;
15502;SDS011;7853;52.186;5.948;2023-07-20T04:48:34;1.98;;;1.61;;
15502;SDS011;7853;52.186;5.948;2023-07-20T04:49:34;1.71;;;1.46;;
15502;SDS011;7853;52.186;5.948;2023-07-20T04:50:34;1.76;;;1.47;;
15502;SDS011;7853;52.186;5.948;2023-07-20T04:51:34;1.45;;;1.35;;
15502;SDS011;7853;52.186;5.948;2023-07-20T04:52:34;1.66;;;1.37;;
15502;SDS011;7853;52.186;5.948;2023-07-20T04:53:34;2.45;;;1.49;;
15502;SDS011;7853;52.186;5.948;2023-07-20T04:54:34;1.61;;;1.47;;
15502;SDS011;7853;52.186;5.948;2023-07-20T04:55:34;1.60;;;1.38;;
15502;SDS011;7853;52.186;5.948;2023-07-20T04:56:34;1.84;;;1.43;;
15502;SDS011;7853;52.186;5.948;2023-07-20T04:57:34;1.66;;;1.45;;
15502;SDS011;7853;52.186;5.948;2023-07-20T04:58:34;1.80;;;1.39;;
15502;SDS011;7853;52.186;5.948;2023-07-20T04:59:34;2.20;;;1.51;;
15502;SDS011;7853;52.186;5.948;2023-07-20T05:00:35;2.30;;;1.56;;
15502;SDS011;7853;52.186;5.948;2023-07-20T05:01:34;2.57;;;1.42;;
15502;SDS011;7853;52.186;5.948;2023-07-20T05:02:34;1.94;;;1.46;;
15502;SDS011;7853;52.186;5.948;2023-07-20T05:03:34;1.53;;;1.36;;
15502;SDS011;7853;52.186;5.948;2023-07-20T05:04:34;1.74;;;1.39;;
15502;SDS011;7853;52.186;5.948;2023-07-20T05:05:34;1.76;;;1.46;;
15502;SDS011;7853;52.186;5.948;2023-07-20T05:06:34;2.04;;;1.50;;
15502;SDS011;7853;52.186;5.948;2023-07-20T05:07:34;1.68;;;1.49;;
15502;SDS011;7853;52.186;5.948;2023-07-20T05:08:34;2.59;;;1.59;;
15502;SDS011;7853;52.186;5.948;2023-07-20T05:09:34;2.39;;;1.55;;
15502;SDS011;7853;52.186;5.948;2023-07-20T05:10:34;1.82;;;1.46;;
15502;SDS011;7853;52.186;5.948;2023-07-20T05:11:34;2.09;;;1.47;;
15502;SDS011;7853;52.186;5.948;2023-07-20T05:12:35;1.90;;;1.54;;
15502;SDS011;7853;52.186;5.948;2023-07-20T05:13:34;1.60;;;1.49;;
15502;SDS011;7853;52.186;5.948;2023-07-20T05:14:35;1.80;;;1.56;;
15502;SDS011;7853;52.186;5.948;2023-07-20T05:15:34;2.03;;;1.51;;
15502;SDS011;7853;52.186;5.948;2023-07-20T05:16:35;2.36;;;1.39;;
15502;SDS011;7853;52.186;5.948;2023-07-20T05:17:35;1.69;;;1.44;;
15502;SDS011;7853;52.186;5.948;2023-07-20T05:18:34;1.70;;;1.49;;
15502;SDS011;7853;52.186;5.948;2023-07-20T05:19:35;1.70;;;1.44;;
15502;SDS011;7853;52.186;5.948;2023-07-20T05:20:35;2.35;;;1.49;;
15502;SDS011;7853;52.186;5.948;2023-07-20T05:21:35;1.98;;;1.58;;
15502;SDS011;7853;52.186;5.948;2023-07-20T05:22:35;1.59;;;1.30;;
15502;SDS011;7853;52.186;5.948;2023-07-20T05:23:35;1.84;;;1.51;;
15502;SDS011;7853;52.186;5.948;2023-07-20T05:24:35;2.40;;;1.47;;
15502;SDS011;7853;52.186;5.948;2023-07-20T05:25:35;1.82;;;1.43;;
15502;SDS011;7853;52.186;5.948;2023-07-20T05:26:35;1.84;;;1.47;;
15502;SDS011;7853;52.186;5.948;2023-07-20T05:27:35;2.12;;;1.52;;
15502;SDS011;7853;52.186;5.948;2023-07-20T05:28:35;1.64;;;1.39;;
15502;SDS011;7853;52.186;5.948;2023-07-20T05:29:35;2.13;;;1.45;;
15502;SDS011;7853;52.186;5.948;2023-07-20T05:30:35;1.60;;;1.40;;
15502;SDS011;7853;52.186;5.948;2023-07-20T05:31:35;1.64;;;1.33;;
15502;SDS011;7853;52.186;5.948;2023-07-20T05:32:35;1.68;;;1.38;;
15502;SDS011;7853;52.186;5.948;2023-07-20T05:33:35;2.21;;;1.51;;
15502;SDS011;7853;52.186;5.948;2023-07-20T05:34:35;1.80;;;1.45;;
15502;SDS011;7853;52.186;5.948;2023-07-20T05:35:35;1.41;;;1.26;;
15502;SDS011;7853;52.186;5.948;2023-07-20T05:36:35;1.80;;;1.35;;
15502;SDS011;7853;52.186;5.948;2023-07-20T05:37:35;2.04;;;1.40;;
15502;SDS011;7853;52.186;5.948;2023-07-20T05:38:35;2.19;;;1.44;;
15502;SDS011;7853;52.186;5.948;2023-07-20T05:39:35;2.13;;;1.37;;
15502;SDS011;7853;52.186;5.948;2023-07-20T05:40:36;1.86;;;1.49;;
15502;SDS011;7853;52.186;5.948;2023-07-20T05:41:35;1.97;;;1.69;;
15502;SDS011;7853;52.186;5.948;2023-07-20T05:42:35;1.81;;;1.44;;
15502;SDS011;7853;52.186;5.948;2023-07-20T05:43:35;1.92;;;1.37;;
15502;SDS011;7853;52.186;5.948;2023-07-20T05:44:35;1.58;;;1.30;;
15502;SDS011;7853;52.186;5.948;2023-07-20T05:45:35;1.63;;;1.33;;
15502;SDS011;7853;52.186;5.948;2023-07-20T05:46:35;1.99;;;1.43;;
15502;SDS011;7853;52.186;5.948;2023-07-20T05:47:35;1.41;;;1.27;;
15502;SDS011;7853;52.186;5.948;2023-07-20T05:48:35;1.37;;;1.19;;
15502;SDS011;7853;52.186;5.948;2023-07-20T05:49:35;1.29;;;1.14;;
15502;SDS011;7853;52.186;5.948;2023-07-20T05:50:35;1.74;;;1.19;;
15502;SDS011;7853;52.186;5.948;2023-07-20T05:51:35;1.71;;;1.26;;
15502;SDS011;7853;52.186;5.948;2023-07-20T05:52:35;1.78;;;1.27;;
15502;SDS011;7853;52.186;5.948;2023-07-20T05:53:35;1.82;;;1.12;;
15502;SDS011;7853;52.186;5.948;2023-07-20T05:54:35;1.61;;;1.19;;
15502;SDS011;7853;52.186;5.948;2023-07-20T05:55:35;1.63;;;1.26;;
15502;SDS011;7853;52.186;5.948;2023-07-20T05:56:35;1.60;;;1.24;;
15502;SDS011;7853;52.186;5.948;2023-07-20T05:57:35;1.44;;;1.31;;
15502;SDS011;7853;52.186;5.948;2023-07-20T05:58:35;1.88;;;1.29;;
15502;SDS011;7853;52.186;5.948;2023-07-20T05:59:35;1.32;;;1.15;;
15502;SDS011;7853;52.186;5.948;2023-07-20T06:00:35;1.77;;;1.27;;
15502;SDS011;7853;52.186;5.948;2023-07-20T06:01:35;1.14;;;1.04;;
15502;SDS011;7853;52.186;5.948;2023-07-20T06:02:35;1.77;;;1.07;;
15502;SDS011;7853;52.186;5.948;2023-07-20T06:03:35;1.76;;;1.08;;
15502;SDS011;7853;52.186;5.948;2023-07-20T06:04:35;1.22;;;0.98;;
15502;SDS011;7853;52.186;5.948;2023-07-20T06:05:35;1.55;;;1.04;;
15502;SDS011;7853;52.186;5.948;2023-07-20T06:06:35;1.42;;;1.01;;
15502;SDS011;7853;52.186;5.948;2023-07-20T06:07:35;1.32;;;1.02;;
15502;SDS011;7853;52.186;5.948;2023-07-20T06:08:35;1.70;;;1.04;;